createdAt,value
2023-03-10T00:00:02.618Z,12.69
2023-03-10T00:01:02.211Z,12.67
2023-03-10T00:02:03.074Z,12.66
2023-03-10T00:03:03.247Z,12.67
2023-03-10T00:04:02.687Z,12.67
2023-03-10T00:05:02.976Z,12.66
2023-03-10T00:06:03.171Z,12.67
2023-03-10T00:07:03.509Z,12.67
2023-03-10T00:08:03.426Z,12.67
2023-03-10T00:09:03.068Z,12.67
2023-03-10T00:10:03.521Z,12.66
2023-03-10T00:11:03.252Z,12.67
2023-03-10T00:12:03.521Z,12.67
2023-03-10T00:13:03.444Z,12.69
2023-03-10T00:14:03.186Z,12.69
2023-03-10T00:15:03.470Z,12.70
2023-03-10T00:16:03.299Z,12.70
2023-03-10T00:17:03.439Z,12.74
2023-03-10T00:18:02.935Z,12.71
2023-03-10T00:19:03.180Z,12.74
2023-03-10T00:20:02.781Z,12.75
2023-03-10T00:21:03.118Z,12.77
2023-03-10T00:22:03.440Z,12.77
2023-03-10T00:23:03.155Z,12.75
2023-03-10T00:24:03.002Z,12.78
2023-03-10T00:25:03.578Z,12.81
2023-03-10T00:26:03.639Z,12.84
2023-03-10T00:27:03.781Z,12.88
2023-03-10T00:28:03.313Z,12.88
2023-03-10T00:29:03.732Z,12.88
2023-03-10T00:30:03.885Z,12.87
2023-03-10T00:31:03.333Z,12.89
2023-03-10T00:32:03.442Z,12.87
2023-03-10T00:33:02.872Z,12.87
2023-03-10T00:34:03.293Z,12.85
2023-03-10T00:35:03.016Z,12.87
2023-03-10T00:36:03.489Z,12.88
2023-03-10T00:37:03.250Z,12.89
2023-03-10T00:38:03.493Z,12.88
2023-03-10T00:39:02.966Z,12.93
2023-03-10T00:40:03.294Z,12.92
2023-03-10T00:41:02.992Z,12.93
2023-03-10T00:42:03.237Z,12.96
2023-03-10T00:43:02.654Z,12.97
2023-03-10T00:44:03.041Z,12.97
2023-03-10T00:45:02.748Z,12.99
2023-03-10T00:46:03.069Z,12.97
2023-03-10T00:47:02.564Z,12.99
2023-03-10T00:48:03.189Z,13.00
2023-03-10T00:49:03.255Z,13.00
2023-03-10T00:50:02.738Z,13.00
2023-03-10T00:51:03.070Z,13.02
2023-03-10T00:52:03.308Z,13.04
2023-03-10T00:53:03.147Z,13.04
2023-03-10T00:54:03.375Z,13.09
2023-03-10T00:55:03.311Z,13.14
2023-03-10T00:56:03.036Z,13.15
2023-03-10T00:57:02.573Z,13.14
2023-03-10T00:58:02.782Z,13.14
2023-03-10T00:59:02.517Z,13.14
2023-03-10T01:00:02.712Z,13.14
2023-03-10T01:01:02.455Z,13.12
2023-03-10T01:02:02.019Z,13.12
2023-03-10T01:03:02.131Z,13.14
2023-03-10T01:04:02.624Z,13.14
2023-03-10T01:05:01.972Z,13.14
2023-03-10T01:06:02.577Z,13.11
2023-03-10T01:07:02.056Z,13.14
2023-03-10T01:08:02.434Z,13.17
2023-03-10T01:09:02.068Z,13.17
2023-03-10T01:10:02.516Z,13.14
2023-03-10T01:11:01.980Z,13.12
2023-03-10T01:12:02.373Z,13.12
2023-03-10T01:13:02.417Z,13.12
2023-03-10T01:14:02.798Z,13.12
2023-03-10T01:15:02.451Z,13.11
2023-03-10T01:16:02.913Z,13.07
2023-03-10T01:17:02.357Z,13.07
2023-03-10T01:18:02.632Z,13.07
2023-03-10T01:19:02.305Z,13.11
2023-03-10T01:20:02.995Z,13.11
2023-03-10T01:21:02.273Z,13.11
2023-03-10T01:22:02.228Z,13.11
2023-03-10T01:23:02.171Z,13.12
2023-03-10T01:24:02.273Z,13.12
2023-03-10T01:25:01.755Z,13.12
2023-03-10T01:26:02.016Z,13.09
2023-03-10T01:27:02.445Z,13.09
2023-03-10T01:28:02.885Z,13.11
2023-03-10T01:29:02.363Z,13.12
2023-03-10T01:30:02.611Z,13.11
2023-03-10T01:31:02.925Z,13.11
2023-03-10T01:32:02.132Z,13.12
2023-03-10T01:33:02.577Z,13.11
2023-03-10T01:34:02.109Z,13.12
2023-03-10T01:35:02.478Z,13.12
2023-03-10T01:36:02.763Z,13.11
2023-03-10T01:37:01.821Z,13.11
2023-03-10T01:38:02.173Z,13.11
2023-03-10T01:39:02.180Z,13.12
2023-03-10T01:40:01.561Z,13.12
2023-03-10T01:41:01.988Z,13.15
2023-03-10T01:42:02.292Z,13.17
2023-03-10T01:43:02.758Z,13.18
2023-03-10T01:44:02.081Z,13.17
2023-03-10T01:45:02.494Z,13.15
2023-03-10T01:46:02.229Z,13.14
2023-03-10T01:47:02.663Z,13.15
2023-03-10T01:48:02.411Z,13.14
2023-03-10T01:49:02.379Z,13.12
2023-03-10T01:50:02.847Z,13.11
2023-03-10T01:51:02.383Z,13.12
2023-03-10T01:52:01.821Z,13.09
2023-03-10T01:53:02.073Z,13.12
2023-03-10T01:54:01.557Z,13.11
2023-03-10T01:55:01.523Z,13.11
2023-03-10T01:56:01.946Z,13.07
2023-03-10T01:57:02.391Z,13.07
2023-03-10T01:58:02.082Z,13.04
2023-03-10T01:59:02.438Z,13.02
2023-03-10T02:00:02.181Z,13.02
2023-03-10T02:01:02.597Z,13.00
2023-03-10T02:02:02.696Z,13.00
2023-03-10T02:03:02.428Z,12.97
2023-03-10T02:04:02.863Z,12.92
2023-03-10T02:05:03.035Z,12.92
2023-03-10T02:06:02.484Z,12.85
2023-03-10T02:07:01.915Z,12.82
2023-03-10T02:08:01.606Z,12.77
2023-03-10T02:09:01.920Z,12.74
2023-03-10T02:10:01.655Z,12.75
2023-03-10T02:11:01.948Z,12.71
2023-03-10T02:12:02.355Z,12.67
2023-03-10T02:13:02.083Z,12.66
2023-03-10T02:14:02.342Z,12.62
2023-03-10T02:15:01.969Z,12.60
2023-03-10T02:16:02.396Z,12.57
2023-03-10T02:17:02.817Z,12.57
2023-03-10T02:18:02.657Z,12.56
2023-03-10T02:19:02.454Z,12.59
2023-03-10T02:20:02.777Z,12.60
2023-03-10T02:21:02.604Z,12.62
2023-03-10T02:22:02.128Z,12.56
2023-03-10T02:23:01.717Z,12.54
2023-03-10T02:24:02.105Z,12.45
2023-03-10T02:25:01.763Z,12.41
2023-03-10T02:26:02.030Z,12.33
2023-03-10T02:27:02.416Z,12.29
2023-03-10T02:28:02.137Z,12.29
2023-03-10T02:29:02.501Z,12.26
2023-03-10T02:30:02.259Z,12.21
2023-03-10T02:31:02.667Z,12.21
2023-03-10T02:32:02.924Z,12.20
2023-03-10T02:33:02.469Z,12.20
2023-03-10T02:34:02.887Z,12.20
2023-03-10T02:35:02.521Z,12.19
2023-03-10T02:36:03.082Z,12.16
2023-03-10T02:37:02.263Z,12.16
2023-03-10T02:38:02.149Z,12.19
2023-03-10T02:39:01.840Z,12.20
2023-03-10T02:40:02.194Z,12.16
2023-03-10T02:41:01.881Z,12.16
2023-03-10T02:42:02.954Z,12.16
2023-03-10T02:43:02.853Z,12.19
2023-03-10T02:44:02.518Z,12.19
2023-03-10T02:45:02.735Z,12.19
2023-03-10T02:46:03.051Z,12.16
2023-03-10T02:47:02.152Z,12.21
2023-03-10T02:48:01.914Z,12.24
2023-03-10T02:49:02.127Z,12.27
2023-03-10T02:50:01.818Z,12.26
2023-03-10T02:51:02.138Z,12.27
2023-03-10T02:52:02.715Z,12.27
2023-03-10T02:53:02.188Z,12.27
2023-03-10T02:54:02.441Z,12.27
2023-03-10T02:55:02.168Z,12.26
2023-03-10T02:56:02.605Z,12.26
2023-03-10T02:57:02.919Z,12.27
2023-03-10T02:58:02.664Z,12.26
2023-03-10T02:59:03.054Z,12.27
2023-03-10T03:00:02.542Z,12.27
2023-03-10T03:01:02.553Z,12.29
2023-03-10T03:02:03.431Z,12.27
2023-03-10T03:03:03.334Z,12.29
2023-03-10T03:04:03.134Z,12.29
2023-03-10T03:05:03.486Z,12.33
2023-03-10T03:06:03.219Z,12.31
2023-03-10T03:07:03.659Z,12.31
2023-03-10T03:08:03.735Z,12.31
2023-03-10T03:09:03.250Z,12.31
2023-03-10T03:10:03.659Z,12.29
2023-03-10T03:11:03.134Z,12.30
2023-03-10T03:12:03.227Z,12.31
2023-03-10T03:13:02.699Z,12.30
2023-03-10T03:14:03.117Z,12.30
2023-03-10T03:15:02.762Z,12.31
2023-03-10T03:16:03.001Z,12.30
2023-03-10T03:17:03.535Z,12.29
2023-03-10T03:18:03.278Z,12.29
2023-03-10T03:19:03.117Z,12.29
2023-03-10T03:20:03.396Z,12.27
2023-03-10T03:21:03.467Z,12.27
2023-03-10T03:22:03.574Z,12.30
2023-03-10T03:23:03.293Z,12.33
2023-03-10T03:24:02.978Z,12.31
2023-03-10T03:25:03.517Z,12.30
2023-03-10T03:26:03.295Z,12.30
2023-03-10T03:27:03.713Z,12.27
2023-03-10T03:28:03.217Z,12.27
2023-03-10T03:29:03.285Z,12.26
2023-03-10T03:30:03.673Z,12.24
2023-03-10T03:31:03.277Z,12.23
2023-03-10T03:32:03.883Z,12.21
2023-03-10T03:33:03.506Z,12.21
2023-03-10T03:34:03.830Z,12.23
2023-03-10T03:35:03.804Z,12.26
2023-03-10T03:36:03.284Z,12.26
2023-03-10T03:37:02.819Z,12.24
2023-03-10T03:38:03.086Z,12.24
2023-03-10T03:39:03.422Z,12.24
2023-03-10T03:40:02.899Z,12.23
2023-03-10T03:41:02.940Z,12.23
2023-03-10T03:42:02.616Z,12.19
2023-03-10T03:43:02.945Z,12.20
2023-03-10T03:44:02.387Z,12.16
2023-03-10T03:45:02.816Z,12.19
2023-03-10T03:46:02.678Z,12.13
2023-03-10T03:47:03.140Z,12.13
2023-03-10T03:48:03.156Z,12.11
2023-03-10T03:49:03.699Z,12.08
2023-03-10T03:50:03.409Z,12.06
2023-03-10T03:51:03.604Z,12.05
2023-03-10T03:52:03.221Z,12.04
2023-03-10T03:53:03.629Z,12.01
2023-03-10T03:54:03.344Z,11.97
2023-03-10T03:55:03.465Z,11.94
2023-03-10T03:56:03.289Z,11.89
2023-03-10T03:57:03.170Z,11.87
2023-03-10T03:58:03.458Z,11.85
2023-03-10T03:59:03.312Z,11.83
2023-03-10T04:00:03.435Z,11.82
2023-03-10T04:01:03.157Z,11.82
2023-03-10T04:02:03.161Z,11.78
2023-03-10T04:03:02.694Z,11.80
2023-03-10T04:04:02.430Z,11.75
2023-03-10T04:05:02.497Z,11.74
2023-03-10T04:06:02.614Z,11.72
2023-03-10T04:07:03.538Z,11.72
2023-03-10T04:08:03.211Z,11.70
2023-03-10T04:09:02.925Z,11.70
2023-03-10T04:10:03.272Z,11.68
2023-03-10T04:11:02.905Z,11.68
2023-03-10T04:12:02.403Z,11.68
2023-03-10T04:13:02.130Z,11.68
2023-03-10T04:14:02.181Z,11.67
2023-03-10T04:15:02.584Z,11.65
2023-03-10T04:16:02.309Z,11.64
2023-03-10T04:17:02.600Z,11.65
2023-03-10T04:18:02.982Z,11.62
2023-03-10T04:19:02.438Z,11.64
2023-03-10T04:20:08.264Z,11.67
2023-03-10T04:21:02.728Z,11.68
2023-03-10T04:22:02.960Z,11.64
2023-03-10T04:23:03.078Z,11.65
2023-03-10T04:24:03.435Z,11.64
2023-03-10T04:25:03.462Z,11.65
2023-03-10T04:26:02.878Z,11.61
2023-03-10T04:27:03.361Z,11.62
2023-03-10T04:28:03.431Z,11.62
2023-03-10T04:29:03.720Z,11.59
2023-03-10T04:30:03.155Z,11.59
2023-03-10T04:31:03.937Z,11.65
2023-03-10T04:32:05.513Z,11.65
2023-03-10T04:33:02.639Z,11.65
2023-03-10T04:34:02.704Z,11.65
2023-03-10T04:35:02.487Z,11.67
2023-03-10T04:36:02.696Z,11.67
2023-03-10T04:37:03.160Z,11.65
2023-03-10T04:38:03.484Z,11.64
2023-03-10T04:39:03.089Z,11.64
2023-03-10T04:40:03.014Z,11.61
2023-03-10T04:41:03.464Z,11.62
2023-03-10T04:42:03.344Z,11.64
2023-03-10T04:43:03.702Z,11.64
2023-03-10T04:44:03.190Z,11.64
2023-03-10T04:45:03.702Z,11.64
2023-03-10T04:46:03.140Z,11.62
2023-03-10T04:47:03.624Z,11.65
2023-03-10T04:48:03.788Z,11.65
2023-03-10T04:49:03.284Z,11.67
2023-03-10T04:50:03.724Z,11.70
2023-03-10T04:51:03.764Z,11.71
2023-03-10T04:52:02.772Z,11.74
2023-03-10T04:53:02.986Z,11.71
2023-03-10T04:54:02.809Z,11.71
2023-03-10T04:55:03.280Z,11.74
2023-03-10T04:56:02.773Z,11.74
2023-03-10T04:57:03.065Z,11.72
2023-03-10T04:58:03.093Z,11.71
2023-03-10T04:59:03.101Z,11.74
2023-03-10T05:00:03.674Z,11.74
2023-03-10T05:01:03.819Z,11.74
2023-03-10T05:02:02.578Z,11.75
2023-03-10T05:03:02.313Z,11.75
2023-03-10T05:04:02.683Z,11.77
2023-03-10T05:05:02.253Z,11.78
2023-03-10T05:06:01.995Z,11.78
2023-03-10T05:07:01.588Z,11.80
2023-03-10T05:08:01.827Z,11.78
2023-03-10T05:09:01.823Z,11.80
2023-03-10T05:10:01.673Z,11.82
2023-03-10T05:11:02.190Z,11.82
2023-03-10T05:12:02.310Z,11.82
2023-03-10T05:13:02.317Z,11.85
2023-03-10T05:14:02.292Z,11.85
2023-03-10T05:15:02.754Z,11.85
2023-03-10T05:16:02.750Z,11.86
2023-03-10T05:17:02.031Z,11.86
2023-03-10T05:18:02.040Z,11.87
2023-03-10T05:19:01.490Z,11.87
2023-03-10T05:20:01.851Z,11.89
2023-03-10T05:21:01.982Z,11.89
2023-03-10T05:22:01.935Z,11.87
2023-03-10T05:23:02.098Z,11.87
2023-03-10T05:24:02.019Z,11.89
2023-03-10T05:25:02.081Z,11.90
2023-03-10T05:26:02.141Z,11.89
2023-03-10T05:27:02.606Z,11.89
2023-03-10T05:28:02.283Z,11.90
2023-03-10T05:29:02.250Z,11.90
2023-03-10T05:30:02.424Z,11.90
2023-03-10T05:31:02.248Z,11.90
2023-03-10T05:32:02.720Z,11.89
2023-03-10T05:33:02.543Z,11.89
2023-03-10T05:34:02.267Z,11.87
2023-03-10T05:35:02.807Z,11.89
2023-03-10T05:36:02.272Z,11.87
2023-03-10T05:37:02.373Z,11.90
2023-03-10T05:38:02.043Z,11.89
2023-03-10T05:39:01.822Z,11.90
2023-03-10T05:40:02.100Z,11.93
2023-03-10T05:41:02.123Z,11.93
2023-03-10T05:42:02.804Z,11.89
2023-03-10T05:43:02.199Z,11.89
2023-03-10T05:44:02.436Z,11.86
2023-03-10T05:45:02.148Z,11.86
2023-03-10T05:46:02.426Z,11.85
2023-03-10T05:47:02.816Z,11.83
2023-03-10T05:48:02.545Z,11.80
2023-03-10T05:49:02.344Z,11.78
2023-03-10T05:50:02.628Z,11.74
2023-03-10T05:51:02.324Z,11.72
2023-03-10T05:52:02.115Z,11.72
2023-03-10T05:53:02.057Z,11.71
2023-03-10T05:54:02.211Z,11.67
2023-03-10T05:55:02.163Z,11.67
2023-03-10T05:56:01.906Z,11.65
2023-03-10T05:57:02.507Z,11.65
2023-03-10T05:58:02.883Z,11.61
2023-03-10T05:59:02.958Z,11.56
2023-03-10T06:00:02.350Z,11.56
2023-03-10T06:01:02.801Z,11.54
2023-03-10T06:02:01.684Z,11.52
2023-03-10T06:03:02.270Z,11.52
2023-03-10T06:04:02.097Z,11.50
2023-03-10T06:05:01.671Z,11.50
2023-03-10T06:06:02.259Z,11.52
2023-03-10T06:07:01.882Z,11.52
2023-03-10T06:08:02.120Z,11.50
2023-03-10T06:09:02.199Z,11.50
2023-03-10T06:10:02.083Z,11.53
2023-03-10T06:11:02.418Z,11.52
2023-03-10T06:12:02.022Z,11.53
2023-03-10T06:13:02.552Z,11.53
2023-03-10T06:14:02.359Z,11.52
2023-03-10T06:15:02.183Z,11.54
2023-03-10T06:16:02.198Z,11.56
2023-03-10T06:17:01.749Z,11.59
2023-03-10T06:18:01.682Z,11.64
2023-03-10T06:19:02.146Z,11.71
2023-03-10T06:20:01.742Z,11.74
2023-03-10T06:21:02.231Z,11.74
2023-03-10T06:22:01.998Z,11.72
2023-03-10T06:23:01.882Z,11.72
2023-03-10T06:24:02.145Z,11.72
2023-03-10T06:25:02.373Z,11.77
2023-03-10T06:26:02.121Z,11.77
2023-03-10T06:27:02.008Z,11.74
2023-03-10T06:28:02.199Z,11.72
2023-03-10T06:29:01.840Z,11.72
2023-03-10T06:30:01.703Z,11.70
2023-03-10T06:31:02.029Z,11.65
2023-03-10T06:32:01.887Z,11.64
2023-03-10T06:33:01.804Z,11.62
2023-03-10T06:34:04.402Z,11.57
2023-03-10T06:35:02.220Z,11.57
2023-03-10T06:36:02.274Z,11.57
2023-03-10T06:37:02.043Z,11.53
2023-03-10T06:38:02.147Z,11.50
2023-03-10T06:39:02.426Z,11.52
2023-03-10T06:40:02.093Z,11.52
2023-03-10T06:41:01.860Z,11.47
2023-03-10T06:42:02.676Z,11.46
2023-03-10T06:43:02.529Z,11.44
2023-03-10T06:44:02.613Z,11.39
2023-03-10T06:45:02.793Z,11.38
2023-03-10T06:46:02.350Z,11.43
2023-03-10T06:47:02.646Z,11.49
2023-03-10T06:48:02.561Z,11.47
2023-03-10T06:49:02.778Z,11.44
2023-03-10T06:50:02.246Z,11.44
2023-03-10T06:51:02.838Z,11.46
2023-03-10T06:52:02.451Z,11.46
2023-03-10T06:53:02.545Z,11.43
2023-03-10T06:54:02.720Z,11.44
2023-03-10T06:55:02.469Z,11.44
2023-03-10T06:56:02.458Z,11.43
2023-03-10T06:57:02.077Z,11.46
2023-03-10T06:58:02.335Z,11.44
2023-03-10T06:59:02.059Z,11.43
2023-03-10T07:00:02.154Z,11.43
2023-03-10T07:01:01.930Z,11.44
2023-03-10T07:02:02.512Z,11.41
2023-03-10T07:03:02.883Z,11.44
2023-03-10T07:04:02.551Z,11.46
2023-03-10T07:05:02.947Z,11.50
2023-03-10T07:06:02.773Z,11.49
2023-03-10T07:07:02.583Z,11.49
2023-03-10T07:08:02.531Z,11.49
2023-03-10T07:09:02.911Z,11.49
2023-03-10T07:10:02.813Z,11.47
2023-03-10T07:11:02.612Z,11.44
2023-03-10T07:12:03.406Z,11.44
2023-03-10T07:13:03.591Z,11.47
2023-03-10T07:14:03.142Z,11.47
2023-03-10T07:15:03.144Z,11.46
2023-03-10T07:16:03.030Z,11.44
2023-03-10T07:17:02.269Z,11.46
2023-03-10T07:18:02.436Z,11.44
2023-03-10T07:19:02.270Z,11.47
2023-03-10T07:20:02.136Z,11.43
2023-03-10T07:21:02.051Z,11.41
2023-03-10T07:22:02.846Z,11.41
2023-03-10T07:23:02.816Z,11.43
2023-03-10T07:24:02.422Z,11.41
2023-03-10T07:25:02.328Z,11.43
2023-03-10T07:26:02.806Z,11.44
2023-03-10T07:27:02.864Z,11.52
2023-03-10T07:28:02.816Z,11.52
2023-03-10T07:29:02.890Z,11.52
2023-03-10T07:30:03.002Z,11.50
2023-03-10T07:31:02.928Z,11.52
2023-03-10T07:32:02.780Z,11.53
2023-03-10T07:33:02.539Z,11.54
2023-03-10T07:34:02.976Z,11.57
2023-03-10T07:35:02.854Z,11.61
2023-03-10T07:36:03.091Z,11.62
2023-03-10T07:37:03.185Z,11.61
2023-03-10T07:38:03.293Z,11.61
2023-03-10T07:39:03.156Z,11.65
2023-03-10T07:40:03.281Z,11.65
2023-03-10T07:41:03.351Z,11.71
2023-03-10T07:42:02.506Z,11.74
2023-03-10T07:43:02.210Z,11.75
2023-03-10T07:44:02.081Z,11.77
2023-03-10T07:45:02.434Z,11.77
2023-03-10T07:46:02.733Z,11.77
2023-03-10T07:47:02.793Z,11.75
2023-03-10T07:48:02.769Z,11.75
2023-03-10T07:49:02.620Z,11.77
2023-03-10T07:50:02.845Z,11.77
2023-03-10T07:51:03.169Z,11.82
2023-03-10T07:52:02.627Z,11.82
2023-03-10T07:53:02.194Z,11.85
2023-03-10T07:54:02.161Z,11.87
2023-03-10T07:55:02.746Z,11.86
2023-03-10T07:56:02.130Z,11.89
2023-03-10T07:57:03.048Z,11.89
2023-03-10T07:58:02.996Z,11.90
2023-03-10T07:59:02.721Z,11.93
2023-03-10T08:00:02.717Z,11.96
2023-03-10T08:01:02.931Z,11.96
2023-03-10T08:02:02.168Z,11.96
2023-03-10T08:03:01.951Z,11.99
2023-03-10T08:04:02.226Z,12.01
2023-03-10T08:05:02.006Z,12.02
2023-03-10T08:06:01.845Z,12.05
2023-03-10T08:07:02.703Z,12.09
2023-03-10T08:08:02.272Z,12.11
2023-03-10T08:09:02.758Z,12.13
2023-03-10T08:10:02.736Z,12.16
2023-03-10T08:11:02.564Z,12.21
2023-03-10T08:12:02.879Z,12.24
2023-03-10T08:13:02.734Z,12.27
2023-03-10T08:14:03.050Z,12.30
2023-03-10T08:15:02.380Z,12.37
2023-03-10T08:16:02.545Z,12.41
2023-03-10T08:17:02.475Z,12.46
2023-03-10T08:18:02.060Z,12.51
2023-03-10T08:19:02.105Z,12.56
2023-03-10T08:20:02.350Z,12.59
2023-03-10T08:21:02.516Z,12.62
2023-03-10T08:22:02.794Z,12.67
2023-03-10T08:23:02.573Z,12.70
2023-03-10T08:24:02.440Z,12.70
2023-03-10T08:25:02.522Z,12.75
2023-03-10T08:26:02.367Z,12.78
2023-03-10T08:27:02.460Z,12.84
2023-03-10T08:28:02.613Z,12.87
2023-03-10T08:29:02.560Z,12.93
2023-03-10T08:30:03.024Z,12.92
2023-03-10T08:31:05.411Z,12.95
2023-03-10T08:32:02.391Z,12.99
2023-03-10T08:33:02.135Z,13.03
2023-03-10T08:34:02.249Z,13.03
2023-03-10T08:35:02.139Z,13.07
2023-03-10T08:36:02.131Z,13.07
2023-03-10T08:37:02.592Z,13.09
2023-03-10T08:38:02.264Z,13.09
2023-03-10T08:39:02.001Z,13.12
2023-03-10T08:40:02.576Z,13.09
2023-03-10T08:41:02.429Z,13.11
2023-03-10T08:42:03.014Z,13.06
2023-03-10T08:43:02.524Z,13.03
2023-03-10T08:44:02.766Z,13.03
2023-03-10T08:45:02.817Z,13.03
2023-03-10T08:46:02.822Z,13.03
2023-03-10T08:47:02.170Z,13.06
2023-03-10T08:48:01.928Z,13.02
2023-03-10T08:49:01.483Z,13.00
2023-03-10T08:50:01.831Z,13.00
2023-03-10T08:51:01.665Z,12.99
2023-03-10T08:52:01.698Z,12.95
2023-03-10T08:53:02.334Z,12.93
2023-03-10T08:54:02.282Z,12.89
2023-03-10T08:55:02.175Z,12.92
2023-03-10T08:56:01.910Z,12.87
2023-03-10T08:57:01.788Z,12.84
2023-03-10T08:58:01.915Z,12.82
2023-03-10T08:59:02.121Z,12.82
2023-03-10T09:00:02.320Z,12.82
2023-03-10T09:01:02.229Z,12.87
2023-03-10T09:02:03.616Z,12.88
2023-03-10T09:03:03.303Z,12.95
2023-03-10T09:04:03.757Z,12.96
2023-03-10T09:05:03.682Z,13.00
2023-03-10T09:06:03.241Z,13.02
2023-03-10T09:07:02.239Z,13.09
2023-03-10T09:08:02.609Z,13.14
2023-03-10T09:09:02.662Z,13.21
2023-03-10T09:10:02.497Z,13.30
2023-03-10T09:11:02.525Z,13.38
2023-03-10T09:12:02.917Z,13.38
2023-03-10T09:13:13.406Z,13.41
2023-03-10T09:14:02.556Z,13.36
2023-03-10T09:15:02.482Z,13.36
2023-03-10T09:16:02.791Z,13.36
2023-03-10T09:17:02.998Z,13.33
2023-03-10T09:18:02.829Z,13.33
2023-03-10T09:19:02.605Z,13.32
2023-03-10T09:20:02.841Z,13.32
2023-03-10T09:21:02.987Z,13.32
2023-03-10T09:22:03.722Z,13.30
2023-03-10T09:23:03.640Z,13.30
2023-03-10T09:24:03.205Z,13.32
2023-03-10T09:25:03.090Z,13.33
2023-03-10T09:26:03.528Z,13.33
2023-03-10T09:27:02.460Z,13.36
2023-03-10T09:28:02.919Z,13.41
2023-03-10T09:29:02.746Z,13.37
2023-03-10T09:30:02.433Z,13.32
2023-03-10T09:31:03.067Z,13.27
2023-03-10T09:32:02.863Z,13.27
2023-03-10T09:33:03.352Z,13.27
2023-03-10T09:34:02.758Z,13.27
2023-03-10T09:35:02.944Z,13.29
2023-03-10T09:36:07.405Z,13.32
2023-03-10T09:37:02.349Z,13.37
2023-03-10T09:38:02.709Z,13.38
2023-03-10T09:39:02.766Z,13.38
2023-03-10T09:40:04.721Z,13.40
2023-03-10T09:41:02.369Z,13.44
2023-03-10T09:42:02.470Z,13.51
2023-03-10T09:43:02.369Z,13.56
2023-03-10T09:44:02.674Z,13.56
2023-03-10T09:45:02.423Z,13.59
2023-03-10T09:46:03.004Z,13.63
2023-03-10T09:47:02.726Z,13.71
2023-03-10T09:48:04.812Z,13.80
2023-03-10T09:49:02.770Z,13.81
2023-03-10T09:50:02.654Z,13.83
2023-03-10T09:51:02.646Z,13.91
2023-03-10T09:52:02.720Z,13.92
2023-03-10T09:53:03.264Z,13.92
2023-03-10T09:54:02.781Z,13.88
2023-03-10T09:55:02.820Z,13.88
2023-03-10T09:56:03.021Z,13.88
2023-03-10T09:57:02.388Z,13.91
2023-03-10T09:58:03.970Z,13.94
2023-03-10T09:59:02.484Z,14.01
2023-03-10T10:00:02.360Z,14.07
2023-03-10T10:01:02.795Z,14.19
2023-03-10T10:02:02.932Z,14.31
2023-03-10T10:03:02.921Z,14.42
2023-03-10T10:04:03.201Z,14.60
2023-03-10T10:05:04.099Z,14.62
2023-03-10T10:06:03.374Z,14.64
2023-03-10T10:07:02.647Z,14.69
2023-03-10T10:08:03.077Z,14.64
2023-03-10T10:09:05.015Z,14.56
2023-03-10T10:10:02.551Z,14.60
2023-03-10T10:11:02.789Z,14.62
2023-03-10T10:12:03.286Z,14.62
2023-03-10T10:13:03.133Z,14.56
2023-03-10T10:14:03.233Z,14.43
2023-03-10T10:15:03.057Z,14.35
2023-03-10T10:16:21.309Z,14.32
2023-03-10T10:17:02.578Z,14.29
2023-03-10T10:18:15.838Z,14.35
2023-03-10T10:19:02.661Z,14.38
2023-03-10T10:20:02.427Z,14.42
2023-03-10T10:21:02.704Z,14.43
2023-03-10T10:22:02.511Z,14.43
2023-03-10T10:23:02.449Z,14.42
2023-03-10T10:24:02.305Z,14.39
2023-03-10T10:25:02.813Z,14.49
2023-03-10T10:26:02.974Z,14.54
2023-03-10T10:27:02.621Z,14.54
2023-03-10T10:28:02.698Z,14.62
2023-03-10T10:29:02.658Z,14.71
2023-03-10T10:30:02.518Z,14.80
2023-03-10T10:31:02.983Z,14.88
2023-03-10T10:32:03.289Z,14.91
2023-03-10T10:33:03.431Z,14.98
2023-03-10T10:34:02.958Z,15.05
2023-03-10T10:35:03.441Z,15.09
2023-03-10T10:36:03.516Z,15.17
2023-03-10T10:37:02.481Z,15.15
2023-03-10T10:38:02.453Z,15.20
2023-03-10T10:39:02.563Z,15.27
2023-03-10T10:40:02.357Z,15.28
2023-03-10T10:41:03.931Z,15.31
2023-03-10T10:42:03.035Z,15.24
2023-03-10T10:43:03.209Z,15.17
2023-03-10T10:44:02.945Z,15.20
2023-03-10T10:45:03.108Z,15.24
2023-03-10T10:46:03.112Z,15.33
2023-03-10T10:47:02.664Z,15.45
2023-03-10T10:48:02.413Z,15.59
2023-03-10T10:49:02.337Z,15.64
2023-03-10T10:50:02.912Z,15.56
2023-03-10T10:51:02.948Z,15.51
2023-03-10T10:52:03.355Z,15.51
2023-03-10T10:53:03.500Z,15.48
2023-03-10T10:54:03.052Z,15.41
2023-03-10T10:55:03.628Z,15.31
2023-03-10T10:56:03.164Z,15.24
2023-03-10T10:57:02.721Z,15.21
2023-03-10T10:58:02.626Z,15.17
2023-03-10T10:59:02.510Z,15.12
2023-03-10T11:00:02.368Z,15.06
2023-03-10T11:01:02.692Z,15.02
2023-03-10T11:02:03.428Z,14.98
2023-03-10T11:03:03.178Z,14.94
2023-03-10T11:04:03.250Z,14.94
2023-03-10T11:05:03.007Z,14.93
2023-03-10T11:06:02.985Z,14.91
2023-03-10T11:07:02.926Z,14.84
2023-03-10T11:08:02.818Z,14.81
2023-03-10T11:09:02.503Z,14.84
2023-03-10T11:10:02.689Z,14.87
2023-03-10T11:11:02.485Z,14.84
2023-03-10T11:12:03.068Z,14.84
2023-03-10T11:13:03.030Z,14.81
2023-03-10T11:14:02.906Z,14.78
2023-03-10T11:15:02.759Z,14.74
2023-03-10T11:16:02.749Z,14.72
2023-03-10T11:17:03.445Z,14.81
2023-03-10T11:18:03.582Z,14.83
2023-03-10T11:19:03.099Z,14.83
2023-03-10T11:20:03.262Z,14.75
2023-03-10T11:21:03.565Z,14.72
2023-03-10T11:22:03.129Z,14.67
2023-03-10T11:23:02.804Z,14.61
2023-03-10T11:24:03.207Z,14.56
2023-03-10T11:25:02.852Z,14.54
2023-03-10T11:26:02.626Z,14.46
2023-03-10T11:27:03.273Z,14.42
2023-03-10T11:28:02.841Z,14.39
2023-03-10T11:29:03.369Z,14.44
2023-03-10T11:30:02.820Z,14.46
2023-03-10T11:31:03.384Z,14.47
2023-03-10T11:32:03.663Z,14.44
2023-03-10T11:33:03.775Z,14.35
2023-03-10T11:34:03.387Z,14.29
2023-03-10T11:35:03.159Z,14.27
2023-03-10T11:36:03.230Z,14.24
2023-03-10T11:37:02.873Z,14.19
2023-03-10T11:38:02.650Z,14.14
2023-03-10T11:39:02.533Z,14.09
2023-03-10T11:40:02.358Z,14.09
2023-03-10T11:41:02.807Z,13.98
2023-03-10T11:42:03.091Z,13.88
2023-03-10T11:43:02.766Z,13.83
2023-03-10T11:44:02.994Z,13.79
2023-03-10T11:45:02.843Z,13.80
2023-03-10T11:46:02.782Z,13.73
2023-03-10T11:47:03.228Z,13.65
2023-03-10T11:48:02.813Z,13.54
2023-03-10T11:49:02.637Z,13.44
2023-03-10T11:50:03.216Z,13.36
2023-03-10T11:51:03.211Z,13.33
2023-03-10T11:52:03.400Z,13.30
2023-03-10T11:53:02.969Z,13.25
2023-03-10T11:54:03.440Z,13.22
2023-03-10T11:55:02.848Z,13.17
2023-03-10T11:56:02.919Z,13.15
2023-03-10T11:57:03.446Z,13.07
2023-03-10T11:58:02.987Z,13.02
2023-03-10T11:59:02.878Z,12.96
2023-03-10T12:00:02.847Z,12.88
2023-03-10T12:01:03.354Z,12.84
2023-03-10T12:02:02.208Z,12.78
2023-03-10T12:03:02.774Z,12.75
2023-03-10T12:04:02.586Z,12.66
2023-03-10T12:05:02.687Z,12.63
2023-03-10T12:06:02.628Z,12.63
2023-03-10T12:07:02.403Z,12.60
2023-03-10T12:08:02.494Z,12.52
2023-03-10T12:09:03.071Z,12.51
2023-03-10T12:10:02.521Z,12.48
2023-03-10T12:11:03.076Z,12.42
2023-03-10T12:12:02.472Z,12.39
2023-03-10T12:13:02.927Z,12.33
2023-03-10T12:14:02.486Z,12.27
2023-03-10T12:15:03.016Z,12.24
2023-03-10T12:16:02.999Z,12.20
2023-03-10T12:17:02.700Z,12.13
2023-03-10T12:18:03.160Z,12.08
2023-03-10T12:19:03.066Z,12.04
2023-03-10T12:20:02.955Z,11.97
2023-03-10T12:21:02.767Z,11.94
2023-03-10T12:22:03.217Z,11.93
2023-03-10T12:23:02.605Z,11.89
2023-03-10T12:24:02.528Z,11.87
2023-03-10T12:25:02.406Z,11.85
2023-03-10T12:26:02.849Z,11.83
2023-03-10T12:27:02.822Z,11.85
2023-03-10T12:28:03.487Z,11.80
2023-03-10T12:29:03.394Z,11.80
2023-03-10T12:30:03.352Z,11.85
2023-03-10T12:31:03.387Z,11.83
2023-03-10T12:32:03.452Z,11.80
2023-03-10T12:33:02.952Z,11.82
2023-03-10T12:34:03.043Z,11.82
2023-03-10T12:35:02.606Z,11.85
2023-03-10T12:36:03.309Z,11.83
2023-03-10T12:37:02.802Z,11.83
2023-03-10T12:38:02.719Z,11.82
2023-03-10T12:39:02.551Z,11.80
2023-03-10T12:40:02.825Z,11.78
2023-03-10T12:41:02.354Z,11.75
2023-03-10T12:42:02.453Z,11.80
2023-03-10T12:43:02.954Z,11.85
2023-03-10T12:44:02.839Z,11.82
2023-03-10T12:45:03.339Z,11.75
2023-03-10T12:46:02.775Z,11.68
2023-03-10T12:47:03.246Z,11.70
2023-03-10T12:48:02.907Z,11.70
2023-03-10T12:49:02.774Z,11.74
2023-03-10T12:50:02.590Z,11.74
2023-03-10T12:51:02.496Z,11.77
2023-03-10T12:52:02.923Z,11.74